Time;durP1;ratioP1;P1;durP2;ratioP2;P2;SDS_P1;SDS_P2;PMS_P1;PMS_P2;Temp;Humidity;BMP_temperature;BMP_pressure;BME280_temperature;BME280_humidity;BME280_pressure;Samples;Min_cycle;Max_cycle;Signal;HPM_P1;HPM_P2
2021/11/01 00:00:37;;;;;;;25.82;19.98;;;;;;;14.22;57.05;102083.38;1692261;85;21544;-53
2021/11/01 00:03:04;;;;;;;26.25;22.17;;;;;;;14.22;56.95;102088.62;1693421;85;21059;-53
2021/11/01 00:05:30;;;;;;;28.07;23.07;;;;;;;14.20;57.03;102082.54;1692937;85;21058;-53
2021/11/01 00:07:58;;;;;;;31.35;24.23;;;;;;;14.21;57.18;102089.52;1692712;83;21523;-53
2021/11/01 00:10:25;;;;;;;35.43;26.23;;;;;;;14.25;57.35;102090.33;1693127;85;21472;-53
2021/11/01 00:12:54;;;;;;;29.70;25.20;;;;;;;14.25;57.51;102079.86;1693069;85;21135;-53
2021/11/01 00:15:20;;;;;;;33.55;26.50;;;;;;;14.27;57.52;102076.33;1692774;85;21057;-53
2021/11/01 00:17:47;;;;;;;33.55;27.25;;;;;;;14.28;57.67;102072.84;1693195;85;21508;-54
2021/11/01 00:20:14;;;;;;;29.48;26.27;;;;;;;14.29;57.63;102068.04;1692935;85;21544;-54
2021/11/01 00:22:41;;;;;;;33.45;27.40;;;;;;;14.28;57.75;102064.98;1692350;85;21494;-54
2021/11/01 00:25:09;;;;;;;33.15;27.82;;;;;;;14.23;57.84;102064.19;1693073;85;21540;-54
2021/11/01 00:27:36;;;;;;;32.80;27.07;;;;;;;14.22;57.94;102058.51;1692872;85;21012;-53
2021/11/01 00:30:06;;;;;;;33.63;27.67;;;;;;;14.20;57.97;102056.36;1692791;85;20991;-54
2021/11/01 00:32:32;;;;;;;33.13;27.32;;;;;;;14.20;58.06;102055.05;1693034;85;21507;-54
2021/11/01 00:34:59;;;;;;;38.83;26.57;;;;;;;14.18;58.12;102052.91;1692851;85;21050;-54
2021/11/01 00:37:27;;;;;;;35.13;27.25;;;;;;;14.17;58.21;102045.09;1680694;85;21513;-53
2021/11/01 00:39:56;;;;;;;33.02;25.82;;;;;;;14.21;58.22;102045.45;1677690;85;21520;-54
2021/11/01 00:42:23;;;;;;;31.55;26.68;;;;;;;14.24;58.15;102046.26;1677621;85;21065;-53
2021/11/01 00:44:49;;;;;;;32.95;26.95;;;;;;;14.23;58.16;102051.09;1734063;82;21077;-54
2021/11/01 00:47:16;;;;;;;32.00;27.32;;;;;;;14.21;58.31;102042.40;1728650;82;21046;-54
2021/11/01 00:49:44;;;;;;;30.70;26.10;;;;;;;14.21;58.46;102046.33;1730490;82;21051;-54
2021/11/01 00:52:10;;;;;;;34.13;26.60;;;;;;;14.25;58.42;102042.77;1726371;82;20999;-53
2021/11/01 00:54:37;;;;;;;32.53;27.17;;;;;;;14.31;58.44;102049.24;1722872;82;21027;-54
2021/11/01 00:57:04;;;;;;;30.88;25.48;;;;;;;14.37;58.36;102042.59;1727114;82;20999;-53
2021/11/01 00:59:31;;;;;;;28.98;25.15;;;;;;;14.43;58.24;102042.92;1727524;82;20983;-54
2021/11/01 01:01:57;;;;;;;32.33;26.57;;;;;;;14.44;58.19;102040.30;1723856;82;20996;-54
2021/11/01 01:04:24;;;;;;;32.30;26.90;;;;;;;14.47;58.25;102047.22;1730541;82;21046;-54
2021/11/01 01:06:51;;;;;;;33.05;25.85;;;;;;;14.49;58.24;102036.27;1728849;82;21090;-54
2021/11/01 01:09:18;;;;;;;33.30;27.42;;;;;;;14.53;58.21;102034.88;1728562;82;20971;-54
2021/11/01 01:11:45;;;;;;;34.18;26.82;;;;;;;14.56;58.19;102034.84;1729588;82;21038;-54
2021/11/01 01:14:11;;;;;;;30.70;26.80;;;;;;;14.61;58.16;102034.77;1730577;82;20995;-54
2021/11/01 01:16:42;;;;;;;34.63;28.20;;;;;;;14.63;58.09;102029.89;1717261;82;21093;-54
2021/11/01 01:19:15;;;;;;;34.27;27.32;;;;;;;14.68;58.02;102033.74;1725020;82;21129;-54
2021/11/01 01:24:19;;;;;;;33.13;26.52;;;;;;;14.70;57.90;102026.72;1727316;82;21006;-54
2021/11/01 01:26:46;;;;;;;31.45;26.37;;;;;;;14.68;57.86;102018.90;1729590;82;21022;-54
2021/11/01 01:29:12;;;;;;;33.10;26.10;;;;;;;14.69;57.85;102025.85;1730362;82;21011;-54
2021/11/01 01:31:41;;;;;;;29.07;25.10;;;;;;;14.73;57.74;102022.75;1730524;82;20991;-54
2021/11/01 01:34:07;;;;;;;32.42;26.10;;;;;;;14.73;57.60;102021.44;1728889;82;21503;-53
2021/11/01 01:36:33;;;;;;;28.52;25.00;;;;;;;14.69;57.64;102015.37;1730272;82;21506;-54
2021/11/01 01:39:00;;;;;;;31.48;23.60;;;;;;;14.67;57.60;102017.16;1735451;82;21498;-53
2021/11/01 01:41:27;;;;;;;26.33;22.70;;;;;;;14.64;57.43;102011.98;1732328;82;21580;-54
2021/11/01 01:43:59;;;;;;;28.23;22.85;;;;;;;14.61;57.32;102012.03;1734429;82;21045;-54
2021/11/01 01:46:27;;;;;;;29.52;23.92;;;;;;;14.56;57.28;102009.09;1725315;82;21085;-54
2021/11/01 01:48:53;;;;;;;29.32;22.95;;;;;;;14.54;57.17;102003.02;1734425;82;21510;-53
2021/11/01 01:51:21;;;;;;;27.37;21.55;;;;;;;14.51;57.07;102007.86;1734924;82;21066;-54
2021/11/01 01:53:49;;;;;;;30.20;23.57;;;;;;;14.48;57.10;102009.23;1725272;82;21518;-54
2021/11/01 01:56:15;;;;;;;32.50;24.57;;;;;;;14.45;56.98;102009.28;1737636;82;21542;-54
2021/11/01 01:58:50;;;;;;;31.82;23.80;;;;;;;14.42;56.98;102013.28;1738433;82;21090;-54
2021/11/01 02:01:18;;;;;;;29.45;23.80;;;;;;;14.38;56.92;102020.77;1692915;84;21002;-54
2021/11/01 02:03:47;;;;;;;26.73;23.83;;;;;;;14.35;56.95;102016.00;1698665;84;21140;-54
2021/11/01 02:06:39;;;;;;;29.63;23.35;;;;;;;14.32;56.90;102018.70;1696008;84;21051;-54
2021/11/01 02:09:14;;;;;;;27.13;22.27;;;;;;;14.30;56.85;102013.46;1697331;84;21075;-53
2021/11/01 02:11:46;;;;;;;29.42;23.42;;;;;;;14.27;56.73;102013.50;1675652;85;21619;-53
2021/11/01 02:14:13;;;;;;;28.05;22.85;;;;;;;14.23;56.73;102015.75;1649121;86;21058;-53
2021/11/01 02:16:40;;;;;;;25.92;22.80;;;;;;;14.21;56.72;102016.22;1644317;85;21057;-54
2021/11/01 02:19:08;;;;;;;28.70;22.55;;;;;;;14.17;56.71;102016.29;1650321;86;21021;-53
2021/11/01 02:21:52;;;;;;;28.83;21.70;;;;;;;14.13;56.67;102015.48;1651325;86;21067;-54
2021/11/01 02:24:30;;;;;;;28.15;22.65;;;;;;;14.13;56.64;102018.10;1651369;86;21038;-53
2021/11/01 02:26:56;;;;;;;28.62;22.90;;;;;;;14.11;56.58;102017.27;1633562;87;21100;-54
2021/11/01 02:29:23;;;;;;;28.02;22.25;;;;;;;14.10;56.75;102015.52;1651346;86;21536;-54
2021/11/01 02:31:51;;;;;;;27.42;22.48;;;;;;;14.08;56.84;102009.45;1649612;86;21533;-54
2021/11/01 02:34:19;;;;;;;27.67;22.05;;;;;;;14.07;56.88;102010.79;1650355;86;21022;-54
2021/11/01 02:36:46;;;;;;;28.32;23.00;;;;;;;14.05;56.96;102009.52;1624711;87;21052;-54
2021/11/01 02:39:12;;;;;;;26.17;22.87;;;;;;;14.03;56.97;102000.83;1651944;86;21034;-53
2021/11/01 02:41:41;;;;;;;32.58;23.38;;;;;;;14.02;56.98;102001.70;1652763;86;21234;-53
2021/11/01 02:44:08;;;;;;;30.80;25.25;;;;;;;13.98;56.97;101996.09;1645915;86;21102;-53
2021/11/01 02:46:35;;;;;;;31.15;24.90;;;;;;;13.96;56.97;101995.69;1645472;86;21089;-54
2021/11/01 02:49:02;;;;;;;32.28;25.35;;;;;;;13.92;56.94;101994.88;1652593;86;21025;-54
2021/11/01 02:51:29;;;;;;;28.50;23.20;;;;;;;13.87;56.96;101994.08;1634273;86;21005;-54
2021/11/01 02:53:58;;;;;;;32.93;24.35;;;;;;;13.84;57.00;102000.25;1606145;89;21616;-54
2021/11/01 02:56:24;;;;;;;33.50;24.37;;;;;;;13.83;57.00;101995.89;1606196;89;21513;-54
2021/11/01 02:58:51;;;;;;;29.52;24.18;;;;;;;13.82;56.94;101995.92;1605023;89;21049;-53
2021/11/01 03:01:19;;;;;;;30.97;23.87;;;;;;;13.80;56.87;101994.64;1606222;89;21064;-53
2021/11/01 03:03:46;;;;;;;31.82;25.40;;;;;;;13.80;56.90;101988.54;1606218;89;21093;-53
2021/11/01 03:06:18;;;;;;;30.70;24.47;;;;;;;13.79;56.88;101988.97;1606061;88;21101;-53
2021/11/01 03:08:44;;;;;;;31.02;24.52;;;;;;;13.78;56.90;101987.70;1617081;88;21090;-53
2021/11/01 03:11:11;;;;;;;29.42;24.20;;;;;;;13.77;56.90;101985.95;1612106;88;21098;-53
2021/11/01 03:13:38;;;;;;;31.23;24.52;;;;;;;13.76;56.87;101993.40;1613187;85;21065;-53
2021/11/01 03:16:05;;;;;;;31.27;24.98;;;;;;;13.74;56.87;101995.17;1679699;85;21483;-53
2021/11/01 03:18:47;;;;;;;34.27;25.80;;;;;;;13.71;56.96;101995.20;1679640;85;21038;-54
2021/11/01 03:21:17;;;;;;;30.25;25.85;;;;;;;13.73;56.92;101996.05;1610006;88;21625;-53
2021/11/01 03:23:47;;;;;;;34.60;25.82;;;;;;;13.73;56.91;101997.35;1620098;88;21050;-54
2021/11/01 03:26:18;;;;;;;29.60;23.38;;;;;;;13.72;56.89;101991.72;1601636;88;21057;-54
2021/11/01 03:28:51;;;;;;;31.48;25.52;;;;;;;13.69;56.91;101990.44;1633101;87;21109;-54
2021/11/01 03:31:21;;;;;;;33.28;25.08;;;;;;;13.68;56.96;101992.66;1635452;87;21116;-53
2021/11/01 03:33:47;;;;;;;32.53;25.43;;;;;;;13.64;57.00;101992.28;1635907;87;21069;-53
2021/11/01 03:36:13;;;;;;;31.27;25.10;;;;;;;13.61;57.08;101987.95;1635704;86;21041;-54
2021/11/01 03:38:41;;;;;;;32.20;26.40;;;;;;;13.58;57.11;101994.98;1643271;86;21029;-53
2021/11/01 03:41:10;;;;;;;30.05;25.82;;;;;;;13.55;57.12;101993.70;1643467;86;21498;-53
2021/11/01 03:43:44;;;;;;;33.45;26.62;;;;;;;13.52;57.19;101989.37;1643225;86;21102;-53
2021/11/01 03:46:12;;;;;;;32.50;25.72;;;;;;;13.53;57.23;101994.17;1634922;86;21168;-53
2021/11/01 03:48:43;;;;;;;34.23;27.20;;;;;;;13.52;57.27;101985.89;1644979;86;21614;-53
2021/11/01 03:51:12;;;;;;;30.27;25.85;;;;;;;13.50;57.31;101990.28;1643815;86;21042;-53
2021/11/01 03:53:38;;;;;;;31.50;25.62;;;;;;;13.48;57.35;101976.36;1632685;86;21136;-54
2021/11/01 03:56:07;;;;;;;32.15;25.60;;;;;;;13.46;57.35;101983.36;1645865;86;21581;-53
2021/11/01 03:58:36;;;;;;;32.17;26.57;;;;;;;13.40;57.47;101973.86;1646225;86;21589;-54
2021/11/01 04:01:02;;;;;;;33.02;26.00;;;;;;;13.34;57.58;101979.19;1645766;86;21053;-53
2021/11/01 04:03:29;;;;;;;30.62;25.50;;;;;;;13.33;57.72;101979.21;1643552;86;21013;-53
2021/11/01 04:06:03;;;;;;;34.58;26.55;;;;;;;13.31;57.69;101973.14;1622786;86;21157;-53
2021/11/01 04:08:27;;;;;;;33.45;27.30;;;;;;;13.28;57.74;101974.04;1609568;88;21141;-53
2021/11/01 04:10:54;;;;;;;32.15;26.20;;;;;;;13.24;57.89;101968.43;1610858;88;21094;-53
2021/11/01 04:13:22;;;;;;;37.83;27.32;;;;;;;13.24;57.90;101971.48;1598966;89;21083;-53
2021/11/01 04:15:56;;;;;;;30.82;25.50;;;;;;;13.22;57.89;101965.41;1605099;89;21630;-53
2021/11/01 04:18:26;;;;;;;33.42;26.30;;;;;;;13.20;57.96;101954.11;1600459;89;21023;-53
2021/11/01 04:20:54;;;;;;;34.40;26.55;;;;;;;13.18;58.05;101948.05;1599323;89;21043;-53
2021/11/01 04:23:28;;;;;;;32.42;26.62;;;;;;;13.11;58.12;101949.03;1589955;89;21696;-53
2021/11/01 04:25:50;;;;;;;32.95;25.95;;;;;;;13.10;58.00;101949.89;1614049;87;21068;-53
2021/11/01 04:28:17;;;;;;;35.78;27.32;;;;;;;13.05;58.02;101940.37;1695647;82;21042;-53
2021/11/01 04:30:48;;;;;;;32.80;27.45;;;;;;;12.96;58.20;101936.98;1740566;81;21498;-53
2021/11/01 04:33:16;;;;;;;34.33;27.32;;;;;;;12.91;58.25;101933.55;1738250;82;21078;-54
2021/11/01 04:35:43;;;;;;;36.58;28.02;;;;;;;12.87;58.27;101934.05;1735391;82;21014;-53
2021/11/01 04:38:27;;;;;;;34.50;27.10;;;;;;;12.82;58.34;101935.84;1733279;82;21577;-53
2021/11/01 04:43:51;;;;;;;36.63;28.65;;;;;;;12.75;58.69;101928.97;1741924;82;21101;-53
2021/11/01 04:54:11;;;;;;;36.85;28.57;;;;;;;12.76;59.22;101921.55;1738402;82;21078;-53
2021/11/01 04:56:38;;;;;;;36.40;28.40;;;;;;;12.76;59.34;101925.46;1736078;82;21073;-53
2021/11/01 04:59:05;;;;;;;34.75;27.48;;;;;;;12.75;59.58;101923.75;1737487;81;21069;-54
2021/11/01 05:01:37;;;;;;;36.00;29.45;;;;;;;12.75;59.72;101925.06;1716349;82;21074;-53
2021/11/01 05:04:05;;;;;;;40.75;30.72;;;;;;;12.77;59.76;101923.29;1734762;82;21055;-53
2021/11/01 05:06:29;;;;;;;37.55;29.75;;;;;;;12.79;59.90;101918.91;1734402;82;21027;-54
2021/11/01 05:13:52;;;;;;;37.28;28.73;;;;;;;12.92;59.94;101913.94;1673575;85;21523;-53
2021/11/01 05:16:30;;;;;;;38.73;29.25;;;;;;;12.96;59.91;101906.48;1685418;85;21530;-54
2021/11/01 05:29:05;;;;;;;34.33;27.35;;;;;;;13.19;59.66;101897.52;1655763;87;20979;-54
2021/11/01 05:31:31;;;;;;;31.23;27.02;;;;;;;13.23;59.64;101893.97;1655908;87;21039;-53
2021/11/01 05:34:04;;;;;;;35.80;28.47;;;;;;;13.26;59.59;101888.68;1655815;87;21586;-54
2021/11/01 05:36:29;;;;;;;34.58;28.00;;;;;;;13.28;59.59;101885.59;1652499;87;21050;-53
2021/11/01 05:38:56;;;;;;;31.52;27.48;;;;;;;13.30;59.58;101879.91;1655898;87;21058;-54
2021/11/01 05:41:23;;;;;;;34.27;26.60;;;;;;;13.34;59.60;101882.89;1655765;86;21026;-54
2021/11/01 05:43:50;;;;;;;33.08;26.07;;;;;;;13.37;59.69;101882.42;1655334;87;21174;-53
2021/11/01 05:46:17;;;;;;;30.85;25.75;;;;;;;13.41;59.70;101884.10;1655885;87;21110;-53
2021/11/01 05:48:50;;;;;;;31.55;26.42;;;;;;;13.43;59.57;101876.23;1658107;86;21061;-54
2021/11/01 05:51:17;;;;;;;30.70;26.73;;;;;;;13.49;59.54;101883.97;1660317;86;21079;-53
2021/11/01 05:53:45;;;;;;;32.60;27.37;;;;;;;13.54;59.41;101887.39;1661011;86;21006;-53
2021/11/01 05:56:35;;;;;;;30.00;26.07;;;;;;;13.61;59.33;101889.00;1661056;86;21030;-53
2021/11/01 06:02:09;;;;;;;34.67;26.37;;;;;;;13.76;58.97;101891.37;1660751;86;21002;-53
2021/11/01 06:14:49;;;;;;;32.40;26.62;;;;;;;14.04;58.50;101896.54;1671430;85;21652;-53
2021/11/01 06:17:15;;;;;;;31.12;25.10;;;;;;;14.12;58.50;101895.95;1670475;85;21602;-53
2021/11/01 06:19:42;;;;;;;29.92;25.65;;;;;;;14.19;58.44;101896.27;1672469;85;21523;-53
2021/11/01 06:22:11;;;;;;;31.00;25.12;;;;;;;14.26;58.32;101897.03;1671674;85;21053;-53
2021/11/01 06:27:17;;;;;;;30.00;26.40;;;;;;;14.38;58.08;101906.86;1666454;85;21571;-53
2021/11/01 06:32:26;;;;;;;34.67;28.23;;;;;;;14.49;57.74;101911.86;1592110;90;21073;-55
2021/11/01 06:39:12;;;;;;;31.97;26.23;;;;;;;14.45;57.89;101897.98;1590747;90;21103;-53
2021/11/01 06:42:59;;;;;;;32.35;28.17;;;;;;;14.49;58.17;101891.78;1601675;88;21106;-53
2021/11/01 06:45:29;;;;;;;37.23;28.90;;;;;;;14.48;58.12;101886.15;1599084;88;21153;-53
2021/11/01 06:50:52;;;;;;;30.77;27.48;;;;;;;14.48;57.89;101890.08;1602273;88;21142;-53
2021/11/01 07:25:07;;;;;;;31.85;28.32;;;;;;;14.57;56.88;101908.20;1569435;91;21134;-53
2021/11/01 08:22:15;;;;;;;37.50;31.60;;;;;;;14.83;57.18;101881.92;1734587;81;20994;-51
2021/11/01 08:24:54;;;;;;;37.17;29.75;;;;;;;14.84;57.26;101881.05;1748816;82;21011;-58
2021/11/01 08:51:17;;;;;;;36.75;30.68;;;;;;;15.03;56.86;101873.17;1682526;84;21073;-51
2021/11/01 09:20:20;;;;;;;35.90;29.00;;;;;;;15.23;56.50;101873.14;1607285;88;21554;-53
2021/11/01 09:35:43;;;;;;;34.10;28.37;;;;;;;15.17;56.26;101861.48;1594337;89;21086;-54
2021/11/01 09:35:58;;;;;;;34.85;28.57;;;;;;;15.18;56.56;101867.59;1593096;89;21099;-50
2021/11/01 09:40:56;;;;;;;35.20;29.72;;;;;;;15.26;56.61;101851.23;1564067;91;21150;-49
2021/11/01 09:43:21;;;;;;;35.90;29.77;;;;;;;15.32;56.50;101856.33;1554057;91;21095;-54
2021/11/01 09:45:59;;;;;;;34.88;29.25;;;;;;;15.39;56.37;101855.30;1584463;90;21110;-52
2021/11/01 09:48:25;;;;;;;33.35;28.07;;;;;;;15.44;56.20;101844.27;1641636;84;21606;-53
2021/11/01 09:50:51;;;;;;;35.48;27.48;;;;;;;15.50;55.94;101844.11;1673853;85;21071;-55
2021/11/01 09:53:24;;;;;;;33.25;28.60;;;;;;;15.54;55.85;101840.51;1671742;85;21075;-53
2021/11/01 09:56:06;;;;;;;34.35;28.55;;;;;;;15.58;55.82;101846.56;1667494;86;21054;-53
2021/11/01 10:01:06;;;;;;;37.73;29.80;;;;;;;15.62;55.76;101843.80;1705951;83;21062;-55
2021/11/01 10:03:37;;;;;;;38.08;29.45;;;;;;;15.66;55.49;101840.20;1708582;83;21116;-51
2021/11/01 10:06:06;;;;;;;32.88;28.70;;;;;;;15.65;55.41;101827.99;1663487;86;21031;-50
2021/11/01 10:08:32;;;;;;;39.13;28.90;;;;;;;15.65;55.37;101827.99;1710601;83;21051;-56
2021/11/01 10:11:00;;;;;;;35.10;28.92;;;;;;;15.66;55.41;101823.62;1710253;83;21018;-53
2021/11/01 10:13:30;;;;;;;35.08;29.72;;;;;;;15.71;55.40;101817.34;1708658;83;21192;-50
2021/11/01 10:18:47;;;;;;;32.15;28.17;;;;;;;15.83;55.10;101809.14;1706734;83;21113;-54
2021/11/01 10:21:17;;;;;;;35.15;28.95;;;;;;;15.87;55.06;101796.34;1612993;88;21083;-54
2021/11/01 10:23:51;;;;;;;33.00;28.25;;;;;;;15.94;54.99;101795.29;1613891;88;21570;-52
2021/11/01 10:26:29;;;;;;;35.85;29.52;;;;;;;15.99;54.86;101790.75;1603896;89;21005;-53
2021/11/01 10:28:54;;;;;;;37.78;28.92;;;;;;;16.01;54.47;101786.32;1606801;89;21032;-51
2021/11/01 10:31:25;;;;;;;33.18;28.38;;;;;;;16.00;54.41;101785.93;1602963;89;21551;-54
2021/11/01 10:34:07;;;;;;;29.37;26.35;;;;;;;16.01;54.52;101784.17;1581560;89;21108;-52
2021/11/01 10:36:37;;;;;;;32.45;27.30;;;;;;;16.02;54.57;101786.75;1580996;89;21035;-50
2021/11/01 10:39:10;;;;;;;29.90;26.68;;;;;;;16.03;54.38;101785.83;1580946;89;21000;-49
2021/11/01 10:42:19;;;;;;;33.75;27.55;;;;;;;16.05;54.33;101789.27;1566909;89;21059;-50
2021/11/01 10:45:02;;;;;;;32.78;28.42;;;;;;;16.04;54.27;101781.00;1547933;91;21066;-49
2021/11/01 10:59:01;;;;;;;31.23;26.55;;;;;;;15.85;54.57;101778.46;1554650;90;21101;-49
2021/11/01 11:17:21;;;;;;;30.02;26.52;;;;;;;15.84;55.15;101755.77;1538668;92;21111;-52
2021/11/01 11:20:20;;;;;;;31.12;27.50;;;;;;;15.82;55.04;101756.26;1556510;92;21159;-52
2021/11/01 11:33:27;;;;;;;32.85;27.87;;;;;;;15.77;55.41;101738.45;1629863;88;21067;-54
2021/11/01 11:47:55;;;;;;;31.93;27.17;;;;;;;15.91;55.16;101717.09;1592887;89;21075;-53
2021/11/01 11:50:23;;;;;;;35.35;29.02;;;;;;;15.90;55.18;101708.34;1589757;90;21548;-51
2021/11/01 11:52:49;;;;;;;32.93;26.97;;;;;;;15.94;55.34;101702.10;1597491;89;21141;-56
2021/11/01 11:55:23;;;;;;;33.73;29.18;;;;;;;15.99;55.26;101702.81;1595075;89;21089;-56
2021/11/01 11:57:59;;;;;;;33.05;27.58;;;;;;;16.04;55.27;101705.31;1592089;89;21093;-56
2021/11/01 12:00:28;;;;;;;35.80;29.45;;;;;;;16.09;55.10;101706.05;1598985;89;21009;-56
2021/11/01 12:02:55;;;;;;;31.55;28.00;;;;;;;16.12;54.92;101700.69;1598943;89;21517;-53
2021/11/01 12:05:45;;;;;;;35.65;28.67;;;;;;;16.15;54.85;101701.48;1598687;89;21093;-50
2021/11/01 12:19:15;;;;;;;32.00;26.33;;;;;;;16.13;54.76;101666.53;1493248;96;21112;-50
2021/11/01 12:21:45;;;;;;;30.43;25.97;;;;;;;16.15;54.67;101667.35;1483808;96;21084;-52
2021/11/01 12:26:46;;;;;;;39.98;26.82;;;;;;;16.19;54.39;101663.72;1502297;94;21141;-52
2021/11/01 12:29:14;;;;;;;32.58;26.30;;;;;;;16.19;54.06;101661.09;1498279;95;21189;-50
2021/11/01 12:31:41;;;;;;;33.92;27.02;;;;;;;16.19;53.71;101654.53;1502501;94;21604;-54
2021/11/01 12:34:21;;;;;;;34.53;26.57;;;;;;;16.17;53.56;101651.09;1500202;95;21077;-50
2021/11/01 12:37:09;;;;;;;33.48;26.77;;;;;;;16.16;53.31;101655.92;1500538;94;21081;-50
2021/11/01 12:39:41;;;;;;;37.35;28.17;;;;;;;16.15;53.08;101651.59;1506050;94;21083;-49
2021/11/01 12:58:30;;;;;;;35.05;26.90;;;;;;;15.97;53.17;101639.47;1480290;96;21151;-53
2021/11/01 13:01:14;;;;;;;35.13;26.73;;;;;;;15.98;53.38;101639.42;1451968;98;21116;-49
2021/11/01 13:04:01;;;;;;;34.03;26.40;;;;;;;15.98;53.61;101638.11;1441065;98;21622;-50
2021/11/01 13:09:08;;;;;;;36.83;26.87;;;;;;;16.01;53.98;101634.06;1429751;100;21111;-55
2021/11/01 13:11:53;;;;;;;33.70;26.90;;;;;;;16.01;54.06;101629.28;1429628;100;21626;-54
2021/11/01 13:19:32;;;;;;;34.63;26.97;;;;;;;16.02;53.99;101639.73;1427001;99;21176;-56
2021/11/01 13:22:10;;;;;;;;;;;;;;;16.01;54.07;101636.69;1427383;100;21480;-48
2021/11/01 13:25:13;;;;;;;31.97;27.13;;;;;;;16.04;54.09;101638.36;1465377;96;20140;-55
2021/11/01 13:38:53;;;;;;;39.60;29.75;;;;;;;16.02;53.86;101629.23;1428936;100;21580;-52
2021/11/01 13:43:51;;;;;;;44.10;30.67;;;;;;;15.95;53.97;101631.62;1376143;103;21136;-50
2021/11/01 13:46:25;;;;;;;41.13;28.98;;;;;;;15.95;54.08;101630.78;1390892;102;21215;-53
2021/11/01 13:48:56;;;;;;;37.55;28.85;;;;;;;15.91;54.23;101638.34;1408821;101;21180;-55
2021/11/01 13:51:23;;;;;;;35.98;27.87;;;;;;;15.90;54.40;101634.85;1418130;98;21093;-58
2021/11/01 13:56:46;;;;;;;32.48;26.95;;;;;;;15.87;54.57;101632.30;1441510;98;21143;-52
2021/11/01 13:59:30;;;;;;;30.77;26.93;;;;;;;15.85;54.70;101627.55;1447766;98;21087;-53
2021/11/01 14:29:22;;;;;;;23.57;20.00;;;;;;;15.68;56.17;101641.64;1442084;99;21146;-54
2021/11/01 14:31:59;;;;;;;24.27;18.48;;;;;;;15.66;56.22;101644.73;1488804;96;21108;-52
2021/11/01 15:09:42;;;;;;;16.20;13.80;;;;;;;15.44;56.87;101610.83;1701969;83;21022;-52
2021/11/01 15:19:51;;;;;;;16.60;14.53;;;;;;;15.40;57.20;101623.14;1628729;86;21509;-53
2021/11/01 15:32:55;;;;;;;18.27;15.10;;;;;;;15.33;57.46;101635.17;1619679;87;21090;-52
2021/11/01 15:35:28;;;;;;;19.95;15.60;;;;;;;15.32;57.45;101630.81;1623276;87;21085;-56
2021/11/01 15:40:30;;;;;;;23.50;18.00;;;;;;;15.28;57.68;101629.17;1624697;87;21066;-50
2021/11/01 16:15:10;;;;;;;25.10;18.17;;;;;;;15.28;57.70;101627.86;1648325;85;21582;-54
2021/11/01 16:18:00;;;;;;;19.50;16.75;;;;;;;15.19;58.46;101641.20;1684271;84;21523;-53
2021/11/01 16:20:24;;;;;;;20.92;18.05;;;;;;;15.19;58.46;101633.34;1684269;84;21010;-50
2021/11/01 16:23:00;;;;;;;20.32;17.95;;;;;;;15.19;58.38;101639.45;1682531;84;21053;-54
2021/11/01 16:25:19;;;;;;;20.48;17.82;;;;;;;15.19;58.44;101633.34;1681229;84;21530;-54
2021/11/01 16:27:48;;;;;;;24.25;18.20;;;;;;;15.20;58.54;101639.02;1681086;85;21085;-54
2021/11/01 16:30:19;;;;;;;25.00;21.05;;;;;;;15.21;58.64;101639.41;1681527;84;21049;-53
2021/11/01 16:32:44;;;;;;;28.67;22.52;;;;;;;15.22;58.58;101638.52;1681336;84;21069;-57
2021/11/01 16:35:16;;;;;;;25.70;21.02;;;;;;;15.23;58.51;101642.41;1704245;82;21058;-53
2021/11/01 16:37:49;;;;;;;25.60;21.55;;;;;;;15.23;58.57;101642.41;1732273;82;21007;-51
2021/11/01 16:40:13;;;;;;;26.07;21.82;;;;;;;15.21;58.52;101636.78;1734598;82;21074;-53
2021/11/01 16:42:42;;;;;;;30.75;24.75;;;;;;;15.18;58.55;101634.26;1734220;82;21101;-55
2021/11/01 16:45:32;;;;;;;38.05;30.55;;;;;;;15.13;58.61;101639.62;1729251;82;21117;-49
2021/11/01 16:47:56;;;;;;;42.80;33.45;;;;;;;15.11;58.65;101637.93;1730729;82;21054;-53
2021/11/01 16:50:23;;;;;;;49.30;37.30;;;;;;;15.09;58.73;101641.91;1735013;81;21518;-53
2021/11/01 16:52:50;;;;;;;41.95;34.00;;;;;;;15.07;58.85;101638.91;1735831;82;21538;-53
2021/11/01 16:55:19;;;;;;;39.42;30.97;;;;;;;15.06;58.87;101638.52;1733528;82;21491;-53
2021/11/01 16:57:49;;;;;;;33.88;28.62;;;;;;;15.05;58.76;101636.78;1733313;82;21101;-56
2021/11/01 17:00:36;;;;;;;34.35;26.27;;;;;;;15.03;58.84;101634.65;1740333;82;21038;-53
2021/11/01 17:05:55;;;;;;;31.42;24.82;;;;;;;14.94;58.84;101634.91;1738334;82;21046;-55
2021/11/01 17:27:43;;;;;;;32.93;24.43;;;;;;;14.75;59.42;101608.76;1731948;82;21035;-53
2021/11/01 17:36:34;;;;;;;33.90;25.65;;;;;;;14.68;59.95;101596.25;1659065;86;21034;-55
2021/11/01 18:45:55;;;;;;;46.75;35.60;;;;;;;14.78;60.39;101499.94;1423869;101;21741;-52
2021/11/01 18:51:04;;;;;;;48.90;35.38;;;;;;;14.80;60.41;101502.06;1466054;97;21137;-53
2021/11/01 18:53:42;;;;;;;52.25;36.65;;;;;;;14.81;60.49;101510.34;1491578;95;21060;-49
2021/11/01 18:56:12;;;;;;;54.08;35.78;;;;;;;14.81;60.52;101505.11;1489116;96;21095;-53
2021/11/01 18:58:41;;;;;;;51.50;36.53;;;;;;;14.82;60.49;101506.84;1491656;95;21668;-54
2021/11/01 19:01:10;;;;;;;51.63;36.00;;;;;;;14.82;60.51;101502.91;1487267;95;21170;-54
2021/11/01 19:03:45;;;;;;;52.80;35.00;;;;;;;14.81;60.58;101503.35;1491600;95;21116;-52
2021/11/01 19:08:52;;;;;;;48.35;35.50;;;;;;;14.82;60.56;101497.67;1447056;98;21241;-51
2021/11/01 20:04:50;;;;;;;47.38;33.15;;;;;;;14.79;61.04;101462.37;1505443;95;21633;-51
2021/11/01 20:12:57;;;;;;;39.65;29.65;;;;;;;14.74;61.21;101452.02;1565601;91;21044;-54
2021/11/01 21:26:58;;;;;;;34.80;27.58;;;;;;;14.66;61.22;101384.12;1644844;87;21065;-50
2021/11/01 21:29:21;;;;;;;35.13;27.42;;;;;;;14.62;61.42;101379.87;1641445;87;21096;-50
2021/11/01 21:31:48;;;;;;;38.40;28.50;;;;;;;14.58;61.53;101384.80;1644839;87;21581;-54
2021/11/01 21:34:26;;;;;;;37.42;29.07;;;;;;;14.58;61.60;101383.48;1644865;87;21085;-51
2021/11/01 21:36:43;;;;;;;35.80;28.15;;;;;;;14.59;61.59;101377.33;1644491;87;21108;-54
2021/11/01 21:39:10;;;;;;;38.15;28.12;;;;;;;14.60;61.65;101372.96;1644765;86;21105;-51
2021/11/01 21:41:38;;;;;;;34.53;26.45;;;;;;;14.60;61.68;101371.20;1644702;87;21070;-50
2021/11/01 21:44:05;;;;;;;32.38;26.12;;;;;;;14.58;61.69;101365.16;1642527;87;21089;-49
2021/11/01 21:46:33;;;;;;;36.77;28.07;;;;;;;14.55;61.80;101363.92;1637517;88;21109;-53
2021/11/01 21:48:59;;;;;;;36.98;27.27;;;;;;;14.53;61.88;101358.31;1638100;88;21050;-52
2021/11/01 21:51:27;;;;;;;33.42;25.97;;;;;;;14.51;61.96;101360.11;1698819;83;21046;-54
2021/11/01 21:54:05;;;;;;;35.78;27.58;;;;;;;14.49;62.02;101361.48;1681825;85;21503;-50
2021/11/01 21:56:26;;;;;;;36.17;26.45;;;;;;;14.48;62.16;101355.84;1694372;83;21002;-55
2021/11/01 21:59:12;;;;;;;33.95;26.80;;;;;;;14.47;62.21;101348.87;1712465;83;21018;-52
2021/11/01 22:17:44;;;;;;;33.18;24.70;;;;;;;14.55;62.12;101341.66;1713747;83;21530;-50
2021/11/01 22:20:20;;;;;;;;;;;;;;;14.51;62.11;101338.72;1710629;83;21542;-55
2021/11/01 22:22:51;;;;;;;29.85;22.32;;;;;;;14.51;62.16;101343.09;1709022;82;20087;-55
2021/11/01 22:25:20;;;;;;;29.63;22.30;;;;;;;14.50;62.10;101337.02;1724028;82;21002;-57
2021/11/01 22:38:41;;;;;;;32.23;22.58;;;;;;;14.45;62.36;101323.62;1727043;82;21082;-50
2021/11/01 22:41:08;;;;;;;30.55;22.32;;;;;;;14.47;62.29;101325.31;1724251;82;21566;-51
2021/11/01 22:44:08;;;;;;;29.63;22.02;;;;;;;14.43;62.38;101323.68;1718514;82;21050;-50
2021/11/01 22:56:50;;;;;;;30.77;22.13;;;;;;;14.49;62.36;101315.65;1719596;82;21011;-53
2021/11/01 22:59:18;;;;;;;28.35;21.82;;;;;;;14.50;62.32;101317.38;1727776;82;21050;-53
2021/11/01 23:01:47;;;;;;;26.95;21.02;;;;;;;14.49;62.37;101314.34;1729159;82;21082;-54